KMM308 LMML-EDDM
Flight info
| Callsign | KMM308 |
|---|---|
| Flight time | N/A |
| Altitude | 36000 |
| Route | GZO M622 SOPIR DCT MABOX DCT ADEXI DCT SUKOM DCT LUMAV DCT ALBET DCT VADIK DCT DIKEM DCT SUMIR DCT NAXAV DCT SOTOV/N0401F240 T101 BETOS BETOS1B |
| Aircraft | A320/M-SDE3FGHIRWY/LB1 |
Departure
| Time | 2026-05-07 13:09 |
|---|---|
| Airport | Malta International Airport (LMML) |
Arrival
| Time | N/A |
|---|---|
| Airport | Munich Airport (EDDM) |
| Time | Latitude | Longitude | Altitude | Speed | Heading |
|---|---|---|---|---|---|
| 2026-05-07 12:39 | 35.84908 | 14.49395 | 259 ft | 0 kts | 359° |
| 2026-05-07 13:02 | 35.84905 | 14.49395 | 259 ft | 1 kts | 359° |
| 2026-05-07 13:02 | 35.84888 | 14.49395 | 259 ft | 3 kts | 359° |
| 2026-05-07 13:02 | 35.84875 | 14.49395 | 259 ft | 3 kts | 0° |
| 2026-05-07 13:02 | 35.84857 | 14.49392 | 259 ft | 3 kts | 36° |
| 2026-05-07 13:03 | 35.84851 | 14.49387 | 259 ft | 3 kts | 69° |
| 2026-05-07 13:03 | 35.84850 | 14.49372 | 259 ft | 2 kts | 130° |
| 2026-05-07 13:03 | 35.84853 | 14.49367 | 259 ft | 1 kts | 134° |
| 2026-05-07 13:03 | 35.84864 | 14.49353 | 259 ft | 2 kts | 134° |
| 2026-05-07 13:04 | 35.84868 | 14.49349 | 259 ft | 0 kts | 134° |
| 2026-05-07 13:06 | 35.84867 | 14.49351 | 259 ft | 2 kts | 134° |
| 2026-05-07 13:06 | 35.84834 | 14.49392 | 259 ft | 11 kts | 135° |
| 2026-05-07 13:06 | 35.84764 | 14.49477 | 259 ft | 15 kts | 135° |
| 2026-05-07 13:07 | 35.84676 | 14.49564 | 259 ft | 17 kts | 161° |
| 2026-05-07 13:07 | 35.84574 | 14.49535 | 259 ft | 15 kts | 190° |
| 2026-05-07 13:07 | 35.84461 | 14.49551 | 259 ft | 19 kts | 223° |
| 2026-05-07 13:07 | 35.84455 | 14.49406 | 259 ft | 18 kts | 292° |
| 2026-05-07 13:08 | 35.84520 | 14.49274 | 259 ft | 18 kts | 313° |
| 2026-05-07 13:08 | 35.84674 | 14.49078 | 259 ft | 64 kts | 314° |
| 2026-05-07 13:08 | 35.85165 | 14.48475 | 272 ft | 131 kts | 315° |
| 2026-05-07 13:08 | 35.85910 | 14.47530 | 454 ft | 163 kts | 309° |
| 2026-05-07 13:09 | 35.86676 | 14.46556 | 1212 ft | 157 kts | 306° |
| 2026-05-07 13:09 | 35.87422 | 14.45578 | 1820 ft | 160 kts | 305° |
| 2026-05-07 13:09 | 35.88172 | 14.44540 | 2262 ft | 165 kts | 304° |
| 2026-05-07 13:09 | 35.88921 | 14.43464 | 2725 ft | 165 kts | 303° |
| 2026-05-07 13:10 | 35.89652 | 14.42377 | 3200 ft | 164 kts | 301° |
| 2026-05-07 13:10 | 35.90366 | 14.41280 | 3654 ft | 164 kts | 301° |
| 2026-05-07 13:10 | 35.91073 | 14.40149 | 4213 ft | 170 kts | 300° |
| 2026-05-07 13:10 | 35.91796 | 14.38974 | 5027 ft | 176 kts | 300° |
| 2026-05-07 13:11 | 35.92567 | 14.37718 | 5722 ft | 193 kts | 301° |
| 2026-05-07 13:11 | 35.93432 | 14.36326 | 6278 ft | 213 kts | 302° |
| 2026-05-07 13:11 | 35.94376 | 14.34847 | 6533 ft | 234 kts | 303° |
| 2026-05-07 13:11 | 35.95444 | 14.33201 | 6859 ft | 255 kts | 304° |
| 2026-05-07 13:12 | 35.96447 | 14.31669 | 7405 ft | 261 kts | 304° |
| 2026-05-07 13:12 | 35.97601 | 14.29916 | 8115 ft | 265 kts | 304° |
| 2026-05-07 13:12 | 35.98769 | 14.28139 | 8852 ft | 268 kts | 304° |
| 2026-05-07 13:12 | 35.99950 | 14.26336 | 9584 ft | 272 kts | 303° |
| 2026-05-07 13:13 | 36.01149 | 14.24495 | 10147 ft | 282 kts | 303° |
| 2026-05-07 13:13 | 36.02422 | 14.22521 | 10323 ft | 305 kts | 304° |
| 2026-05-07 13:13 | 36.03887 | 14.20481 | 10550 ft | 329 kts | 313° |
| 2026-05-07 13:13 | 36.05740 | 14.18730 | 11096 ft | 340 kts | 320° |
| 2026-05-07 13:14 | 36.07681 | 14.17034 | 11747 ft | 344 kts | 319° |
| 2026-05-07 13:14 | 36.09639 | 14.15312 | 12406 ft | 347 kts | 319° |
| 2026-05-07 13:14 | 36.11614 | 14.13570 | 13064 ft | 350 kts | 319° |
| 2026-05-07 13:14 | 36.13606 | 14.11805 | 13701 ft | 353 kts | 319° |
| 2026-05-07 13:15 | 36.15611 | 14.10026 | 14311 ft | 356 kts | 319° |
| 2026-05-07 13:15 | 36.17636 | 14.08228 | 14888 ft | 359 kts | 319° |
| 2026-05-07 13:15 | 36.19672 | 14.06420 | 15501 ft | 361 kts | 319° |
| 2026-05-07 13:15 | 36.21715 | 14.04603 | 16117 ft | 363 kts | 318° |
| 2026-05-07 13:16 | 36.23745 | 14.02796 | 16735 ft | 364 kts | 318° |
| 2026-05-07 13:16 | 36.25807 | 14.00962 | 17354 ft | 366 kts | 318° |
| 2026-05-07 13:16 | 36.27884 | 13.99116 | 17972 ft | 368 kts | 318° |
| 2026-05-07 13:16 | 36.29967 | 13.97264 | 18506 ft | 370 kts | 317° |
| 2026-05-07 13:17 | 36.32066 | 13.95395 | 19000 ft | 373 kts | 317° |
| 2026-05-07 13:17 | 36.34182 | 13.93505 | 19465 ft | 376 kts | 317° |
| 2026-05-07 13:17 | 36.36316 | 13.91594 | 19944 ft | 380 kts | 317° |
| 2026-05-07 13:17 | 36.38470 | 13.89666 | 20414 ft | 383 kts | 317° |
| 2026-05-07 13:18 | 36.40643 | 13.87725 | 20876 ft | 387 kts | 318° |
| 2026-05-07 13:18 | 36.42842 | 13.85765 | 21357 ft | 391 kts | 318° |
| 2026-05-07 13:18 | 36.45063 | 13.83786 | 21794 ft | 395 kts | 318° |
| 2026-05-07 13:18 | 36.47306 | 13.81783 | 22233 ft | 398 kts | 318° |
| 2026-05-07 13:19 | 36.49525 | 13.79792 | 22657 ft | 400 kts | 318° |
| 2026-05-07 13:19 | 36.51794 | 13.77750 | 23089 ft | 403 kts | 317° |
| 2026-05-07 13:19 | 36.54078 | 13.75695 | 23493 ft | 406 kts | 318° |
| 2026-05-07 13:19 | 36.56376 | 13.73631 | 23847 ft | 409 kts | 317° |
| 2026-05-07 13:20 | 36.58689 | 13.71555 | 24209 ft | 410 kts | 317° |
| 2026-05-07 13:20 | 36.61009 | 13.69474 | 24564 ft | 412 kts | 317° |
| 2026-05-07 13:20 | 36.63337 | 13.67384 | 24917 ft | 413 kts | 317° |
| 2026-05-07 13:20 | 36.65671 | 13.65283 | 25272 ft | 414 kts | 317° |
| 2026-05-07 13:21 | 36.68010 | 13.63173 | 25618 ft | 416 kts | 317° |
| 2026-05-07 13:21 | 36.70357 | 13.61058 | 25986 ft | 417 kts | 316° |
| 2026-05-07 13:21 | 36.72415 | 13.59203 | 26298 ft | 417 kts | 316° |
| 2026-05-07 13:21 | 36.74768 | 13.57080 | 26643 ft | 418 kts | 316° |
| 2026-05-07 13:22 | 36.77130 | 13.54946 | 26972 ft | 420 kts | 316° |
| 2026-05-07 13:22 | 36.79493 | 13.52808 | 27296 ft | 421 kts | 316° |
| 2026-05-07 13:22 | 36.81865 | 13.50661 | 27614 ft | 422 kts | 316° |
| 2026-05-07 13:22 | 36.84247 | 13.48504 | 27929 ft | 423 kts | 315° |
| 2026-05-07 13:23 | 36.86637 | 13.46334 | 28214 ft | 425 kts | 315° |
| 2026-05-07 13:23 | 36.89030 | 13.44159 | 28493 ft | 426 kts | 315° |
| 2026-05-07 13:23 | 36.91434 | 13.41975 | 28766 ft | 428 kts | 315° |
| 2026-05-07 13:23 | 36.93809 | 13.39818 | 29031 ft | 429 kts | 315° |
| 2026-05-07 13:24 | 36.96228 | 13.37618 | 29314 ft | 430 kts | 314° |
| 2026-05-07 13:24 | 36.98645 | 13.35418 | 29586 ft | 430 kts | 314° |